Moosup, Connecticut
Current Conditions -  °F | °C
As of 6:52 PM on Saturday 22 Nov 2014 (Local Time) from KIJD Reporting Station
Overcast Overcast  
Wind Chill: 35°   Ceiling: 3600
Heat Index: 41°   Visibility: 10mi
Dew Point: 19°   Wind: 9mph
Humidity: 41%   Direction: 220°SW
Pressure: 30.18"   Gusts: NA
Location:  41.72°N, 71.87°W
Report Text: KIJD 222352Z AUTO 22008KT 10SM BKN036 OVC046 05/M07 A3018 RMK AO2 SLP224 T00501072 10056 20039 55013
Loading
Personal Weather Stations






























Interactive Weather Map New forecast layout! Learn more

10-Day Weather Forecast

Advertisements
Track Severe Weather on mobile